createdAt,value
2023-01-08T00:01:39.395Z,100470.81
2023-01-08T00:04:08.199Z,100459.69
2023-01-08T00:06:38.602Z,100457.91
2023-01-08T00:09:07.334Z,100456.22
2023-01-08T00:11:35.864Z,100460.41
2023-01-08T00:14:04.568Z,100456.88
2023-01-08T00:16:33.182Z,100460.28
2023-01-08T00:19:02.717Z,100463.66
2023-01-08T00:21:31.175Z,100463.59
2023-01-08T00:24:01.049Z,100462.75
2023-01-08T00:26:30.115Z,100464.44
2023-01-08T00:28:59.006Z,100464.44
2023-01-08T00:31:27.488Z,100453.34
2023-01-08T00:33:56.051Z,100454.19
2023-01-08T00:36:24.499Z,100455.88
2023-01-08T00:38:52.891Z,100449.91
2023-01-08T00:41:23.493Z,100454.97
2023-01-08T00:43:51.927Z,100454.03
2023-01-08T00:46:20.469Z,100457.41
2023-01-08T00:48:49.172Z,100443.75
2023-01-08T00:51:17.569Z,100453.84
2023-01-08T00:53:46.249Z,100445.31
2023-01-08T00:56:14.654Z,100461.41
2023-01-08T00:58:44.739Z,100432.47
2023-01-08T01:01:15.181Z,100428.94
2023-01-08T01:03:45.146Z,100434.75
2023-01-08T01:06:15.888Z,100428.66
2023-01-08T01:08:44.787Z,100430.28
2023-01-08T01:11:20.839Z,100437.00
2023-01-08T01:13:51.840Z,100435.28
2023-01-08T01:16:20.344Z,100430.97
2023-01-08T01:18:49.590Z,100432.59
2023-01-08T01:21:25.060Z,100433.38
2023-01-08T01:23:56.198Z,100413.69
2023-01-08T01:26:26.318Z,100417.91
2023-01-08T01:28:59.043Z,100410.97
2023-01-08T01:31:30.889Z,100432.22
2023-01-08T01:34:00.113Z,100417.69
2023-01-08T01:36:30.397Z,100435.47
2023-01-08T01:39:00.079Z,100422.72
2023-01-08T01:41:32.761Z,100411.53
2023-01-08T01:44:41.754Z,100414.91
2023-01-08T01:47:23.611Z,100417.50
2023-01-08T01:50:00.700Z,100410.66
2023-01-08T01:52:31.765Z,100408.94
2023-01-08T01:55:02.276Z,100410.72
2023-01-08T01:57:32.054Z,100394.59
2023-01-08T02:00:08.525Z,100389.34
2023-01-08T02:02:37.035Z,100396.22
2023-01-08T02:05:06.348Z,100403.00
2023-01-08T02:07:44.079Z,100385.09
2023-01-08T02:10:18.572Z,100380.09
2023-01-08T02:12:53.281Z,100397.13
2023-01-08T02:15:34.812Z,100388.63
2023-01-08T02:18:10.165Z,100386.09
2023-01-08T02:20:42.507Z,100375.91
2023-01-08T02:23:28.315Z,100382.00
2023-01-08T02:26:09.334Z,100373.53
2023-01-08T02:28:44.127Z,100376.19
2023-01-08T02:31:14.222Z,100370.25
2023-01-08T02:33:42.952Z,100365.22
2023-01-08T02:36:31.816Z,100371.19
2023-01-08T02:39:31.666Z,100356.03
2023-01-08T02:42:15.719Z,100362.06
2023-01-08T02:44:56.582Z,100356.16
2023-01-08T02:47:32.387Z,100356.19
2023-01-08T02:50:11.327Z,100356.19
2023-01-08T02:52:51.132Z,100353.59
2023-01-08T02:55:23.220Z,100365.47
2023-01-08T02:57:53.678Z,100357.81
2023-01-08T03:00:23.561Z,100351.00
2023-01-08T03:03:01.984Z,100356.09
2023-01-08T03:05:30.828Z,100356.88
2023-01-08T03:07:59.593Z,100353.41
2023-01-08T03:10:32.037Z,100331.22
2023-01-08T03:13:06.721Z,100341.34
2023-01-08T03:15:42.793Z,100348.88
2023-01-08T03:18:17.073Z,100342.00
2023-01-08T03:20:46.846Z,100329.09
2023-01-08T03:23:17.626Z,100334.09
2023-01-08T03:25:48.575Z,100328.84
2023-01-08T03:28:24.852Z,100338.13
2023-01-08T03:30:55.514Z,100332.09
2023-01-08T03:33:26.380Z,100332.81
2023-01-08T03:35:58.231Z,100322.53
2023-01-08T03:38:30.584Z,100330.16
2023-01-08T03:41:05.910Z,100330.13
2023-01-08T03:43:35.911Z,100325.84
2023-01-08T03:46:10.333Z,100328.41
2023-01-08T03:48:39.682Z,100316.44
2023-01-08T03:51:10.547Z,100323.22
2023-01-08T03:53:39.216Z,100329.09
2023-01-08T03:56:08.604Z,100346.03
2023-01-08T03:58:38.326Z,100320.44
2023-01-08T04:01:07.057Z,100322.19
2023-01-08T04:03:35.381Z,100328.16
2023-01-08T04:06:03.841Z,100318.75
2023-01-08T04:08:32.227Z,100322.13
2023-01-08T04:11:00.554Z,100343.34
2023-01-08T04:13:28.856Z,100324.63
2023-01-08T04:15:59.252Z,100320.34
2023-01-08T04:18:27.664Z,100333.09
2023-01-08T04:20:56.048Z,100328.06
2023-01-08T04:23:24.435Z,100323.00
2023-01-08T04:25:52.849Z,100330.63
2023-01-08T04:28:22.624Z,100316.22
2023-01-08T04:30:51.070Z,100320.50
2023-01-08T04:33:20.906Z,100311.09
2023-01-08T04:35:49.228Z,100300.06
2023-01-08T04:38:17.549Z,100306.78
2023-01-08T04:40:45.880Z,100314.41
2023-01-08T04:43:14.197Z,100321.94
2023-01-08T04:45:42.887Z,100321.03
2023-01-08T04:48:11.175Z,100312.47
2023-01-08T04:50:40.842Z,100309.91
2023-01-08T04:53:09.174Z,100317.53
2023-01-08T04:55:39.625Z,100309.94
2023-01-08T04:58:08.149Z,100314.25
2023-01-08T05:00:37.272Z,100322.72
2023-01-08T05:03:05.776Z,100311.63
2023-01-08T05:05:35.611Z,100304.81
2023-01-08T05:08:06.120Z,100301.47
2023-01-08T05:10:34.494Z,100296.44
2023-01-08T05:13:04.290Z,100299.81
2023-01-08T05:15:32.833Z,100303.28
2023-01-08T05:18:02.754Z,100300.75
2023-01-08T05:20:31.377Z,100307.53
2023-01-08T05:22:59.819Z,100287.94
2023-01-08T05:25:29.531Z,100293.78
2023-01-08T05:27:57.886Z,100292.88
2023-01-08T05:30:26.199Z,100285.22
2023-01-08T05:32:54.582Z,100287.78
2023-01-08T05:35:23.034Z,100288.63
2023-01-08T05:37:51.480Z,100293.72
2023-01-08T05:40:21.105Z,100294.59
2023-01-08T05:42:50.895Z,100298.88
2023-01-08T05:45:19.336Z,100288.56
2023-01-08T05:47:47.837Z,100289.44
2023-01-08T05:50:16.437Z,100283.44
2023-01-08T05:52:44.811Z,100278.34
2023-01-08T05:55:13.333Z,100276.66
2023-01-08T05:57:41.767Z,100280.91
2023-01-08T06:00:13.344Z,100286.00
2023-01-08T06:02:41.733Z,100285.22
2023-01-08T06:05:10.469Z,100286.06
2023-01-08T06:07:38.912Z,100284.34
2023-01-08T06:10:08.372Z,100291.94
2023-01-08T06:12:36.761Z,100278.25
2023-01-08T06:15:07.194Z,100271.44
2023-01-08T06:17:37.811Z,100282.50
2023-01-08T06:20:07.606Z,100285.84
2023-01-08T06:22:36.399Z,100296.88
2023-01-08T06:25:06.018Z,100288.31
2023-01-08T06:27:34.364Z,100280.66
2023-01-08T06:30:02.741Z,100276.31
2023-01-08T06:32:31.084Z,100279.69
2023-01-08T06:35:00.805Z,100272.88
2023-01-08T06:37:29.154Z,100266.91
2023-01-08T06:39:57.413Z,100276.25
2023-01-08T06:42:25.737Z,100267.72
2023-01-08T06:44:54.110Z,100265.13
2023-01-08T06:47:23.572Z,100257.47
2023-01-08T06:49:51.898Z,100256.66
2023-01-08T06:52:21.667Z,100268.53
2023-01-08T06:54:49.994Z,100252.38
2023-01-08T06:57:18.442Z,100240.47
2023-01-08T06:59:46.811Z,100247.22
2023-01-08T07:02:16.247Z,100238.75
2023-01-08T07:04:44.833Z,100254.88
2023-01-08T07:07:14.329Z,100248.94
2023-01-08T07:09:44.467Z,100257.47
2023-01-08T07:12:14.676Z,100254.09
2023-01-08T07:14:43.498Z,100241.41
2023-01-08T07:17:11.946Z,100255.97
2023-01-08T07:19:40.282Z,100259.41
2023-01-08T07:22:08.642Z,100236.47
2023-01-08T07:24:37.076Z,100250.09
2023-01-08T07:27:06.871Z,100231.41
2023-01-08T07:29:35.246Z,100233.06
2023-01-08T07:32:03.703Z,100243.25
2023-01-08T07:34:32.752Z,100235.59
2023-01-08T07:37:01.223Z,100228.81
2023-01-08T07:39:29.925Z,100215.16
2023-01-08T07:41:58.307Z,100216.03
2023-01-08T07:44:28.069Z,100210.09
2023-01-08T07:46:57.164Z,100228.72
2023-01-08T07:49:26.845Z,100204.91
2023-01-08T07:51:55.198Z,100210.00
2023-01-08T07:54:23.511Z,100214.28
2023-01-08T07:56:51.851Z,100224.50
2023-01-08T07:59:20.237Z,100211.75
2023-01-08T08:01:50.328Z,100215.16
2023-01-08T08:04:19.400Z,100211.78
2023-01-08T08:06:47.876Z,100206.66
2023-01-08T08:09:16.716Z,100213.53
2023-01-08T08:11:45.135Z,100218.63
2023-01-08T08:14:13.496Z,100221.97
2023-01-08T08:16:42.358Z,100215.25
2023-01-08T08:19:12.857Z,100217.81
2023-01-08T08:21:41.385Z,100216.16
2023-01-08T08:24:10.267Z,100220.50
2023-01-08T08:26:39.150Z,100217.94
2023-01-08T08:29:07.637Z,100199.28
2023-01-08T08:31:36.108Z,100200.97
2023-01-08T08:34:04.836Z,100194.25
2023-01-08T08:36:34.802Z,100193.34
2023-01-08T08:39:05.165Z,100188.25
2023-01-08T08:41:33.525Z,100184.09
2023-01-08T08:44:01.887Z,100183.25
2023-01-08T08:46:30.873Z,100196.88
2023-01-08T08:48:59.288Z,100176.53
2023-01-08T08:51:29.000Z,100181.72
2023-01-08T08:53:58.704Z,100183.47
2023-01-08T08:56:29.835Z,100175.91
2023-01-08T08:58:59.157Z,100164.91
2023-01-08T09:01:27.618Z,100173.50
2023-01-08T09:03:56.178Z,100174.34
2023-01-08T09:06:27.519Z,100159.94
2023-01-08T09:08:56.251Z,100185.41
2023-01-08T09:11:26.011Z,100189.72
2023-01-08T09:13:54.420Z,100184.63
2023-01-08T09:16:22.820Z,100188.88
2023-01-08T09:18:51.175Z,100183.06
2023-01-08T09:21:19.627Z,100189.03
2023-01-08T09:23:50.056Z,100170.41
2023-01-08T09:26:18.494Z,100168.78
2023-01-08T09:28:48.263Z,100173.06
2023-01-08T09:31:16.700Z,100165.50
2023-01-08T09:33:45.071Z,100166.31
2023-01-08T09:36:14.757Z,100151.03
2023-01-08T09:38:45.026Z,100149.41
2023-01-08T09:41:19.609Z,100151.22
2023-01-08T09:43:53.978Z,100151.34
2023-01-08T09:46:28.423Z,100135.28
2023-01-08T09:49:02.014Z,100140.44
2023-01-08T09:51:36.556Z,100125.16
2023-01-08T09:54:07.715Z,100122.72
2023-01-08T09:56:36.775Z,100121.09
2023-01-08T09:59:07.331Z,100127.22
2023-01-08T10:01:39.875Z,100127.31
2023-01-08T10:04:15.890Z,100126.50
2023-01-08T10:06:52.145Z,100134.19
2023-01-08T10:09:27.519Z,100113.75
2023-01-08T10:12:00.592Z,100109.63
2023-01-08T10:14:34.135Z,100113.91
2023-01-08T10:17:11.534Z,100107.13
2023-01-08T10:19:40.337Z,100108.84
2023-01-08T10:22:14.643Z,100104.63
2023-01-08T10:24:43.338Z,100098.69
2023-01-08T10:27:16.914Z,100094.41
2023-01-08T10:29:46.941Z,100093.56
2023-01-08T10:32:18.371Z,100091.03
2023-01-08T10:34:50.257Z,100084.25
2023-01-08T10:37:28.421Z,100083.44
2023-01-08T10:40:06.786Z,100085.13
2023-01-08T10:42:36.774Z,100075.72
2023-01-08T10:45:17.451Z,100077.41
2023-01-08T10:47:48.966Z,100061.28
2023-01-08T10:50:24.302Z,100048.47
2023-01-08T10:52:58.358Z,100046.72
2023-01-08T10:55:29.703Z,100051.75
2023-01-08T10:58:01.047Z,100042.31
2023-01-08T11:00:34.392Z,100051.66
2023-01-08T11:03:05.443Z,100032.06
2023-01-08T11:05:36.717Z,100028.66
2023-01-08T11:08:09.368Z,100039.72
2023-01-08T11:10:39.132Z,100031.22
2023-01-08T11:13:10.478Z,100028.66
2023-01-08T11:15:42.065Z,100043.22
2023-01-08T11:18:20.821Z,100027.88
2023-01-08T11:20:50.464Z,100025.31
2023-01-08T11:23:22.566Z,100031.16
2023-01-08T11:26:01.150Z,100032.81
2023-01-08T11:28:43.602Z,100026.00
2023-01-08T11:31:22.881Z,100017.44
2023-01-08T11:33:59.635Z,100018.25
2023-01-08T11:36:34.912Z,100023.28
2023-01-08T11:39:03.842Z,100024.06
2023-01-08T11:41:52.533Z,100016.44
2023-01-08T11:44:36.402Z,100008.78
2023-01-08T11:47:18.582Z,100005.38
2023-01-08T11:50:11.025Z,99998.53
2023-01-08T11:53:14.886Z,100009.59
2023-01-08T11:55:54.662Z,100014.56
2023-01-08T11:58:49.985Z,100018.00
2023-01-08T12:01:47.380Z,100016.25
2023-01-08T12:04:38.644Z,100012.84
2023-01-08T12:07:16.575Z,100006.97
2023-01-08T12:09:47.929Z,100009.47
2023-01-08T12:12:30.764Z,100016.31
2023-01-08T12:15:13.499Z,99995.06
2023-01-08T12:18:19.157Z,100022.31
2023-01-08T12:20:59.923Z,99998.53
2023-01-08T12:23:48.777Z,99979.00
2023-01-08T12:26:25.684Z,99986.63
2023-01-08T12:29:31.862Z,99987.50
2023-01-08T12:32:28.486Z,100003.56
2023-01-08T12:35:05.208Z,99993.34
2023-01-08T12:37:44.386Z,99989.94
2023-01-08T12:40:19.201Z,99981.38
2023-01-08T12:42:59.984Z,99997.47
2023-01-08T12:45:31.780Z,99991.56
2023-01-08T12:48:06.853Z,99991.56
2023-01-08T12:50:45.914Z,99983.81
2023-01-08T12:53:28.086Z,99994.84
2023-01-08T12:56:06.599Z,100000.75
2023-01-08T12:58:59.351Z,99976.91
2023-01-08T13:01:40.578Z,99984.53
2023-01-08T13:04:12.243Z,99981.09
2023-01-08T13:06:51.291Z,99978.47
2023-01-08T13:09:27.806Z,99995.47
2023-01-08T13:11:58.817Z,99982.66
2023-01-08T13:14:28.617Z,99986.06
2023-01-08T13:17:06.918Z,99978.44
2023-01-08T13:19:42.810Z,99981.03
2023-01-08T13:22:29.069Z,99976.78
2023-01-08T13:25:28.785Z,99965.69
2023-01-08T13:27:57.692Z,99977.50
2023-01-08T13:30:40.833Z,99957.09
2023-01-08T13:33:41.833Z,99968.91
2023-01-08T13:36:26.027Z,99968.03
2023-01-08T13:39:07.880Z,99974.00
2023-01-08T13:41:40.244Z,99960.34
2023-01-08T13:44:23.681Z,99969.69
2023-01-08T13:46:56.486Z,99950.16
2023-01-08T13:49:31.409Z,99967.09
2023-01-08T13:51:59.795Z,99958.59
2023-01-08T13:54:36.641Z,99960.28
2023-01-08T13:57:14.108Z,99954.34
2023-01-08T13:59:49.113Z,99962.78
2023-01-08T14:02:31.234Z,99967.94
2023-01-08T14:05:01.565Z,99971.31
2023-01-08T14:07:30.960Z,99971.31
2023-01-08T14:10:10.262Z,99975.63
2023-01-08T14:12:40.724Z,99989.22
2023-01-08T14:15:17.650Z,99968.84
2023-01-08T14:17:46.554Z,99986.69
2023-01-08T14:20:21.264Z,99952.78
2023-01-08T14:22:49.737Z,99952.72
2023-01-08T14:25:20.853Z,99956.09
2023-01-08T14:28:06.523Z,99949.19
2023-01-08T14:30:35.749Z,99945.69
2023-01-08T14:33:05.026Z,99947.38
2023-01-08T14:35:36.581Z,99960.09
2023-01-08T14:38:05.914Z,99956.69
2023-01-08T14:40:39.770Z,99951.59
2023-01-08T14:43:16.740Z,99945.63
2023-01-08T14:45:49.451Z,99920.19
2023-01-08T14:48:23.878Z,99935.44
2023-01-08T14:51:05.455Z,99925.28
2023-01-08T14:53:37.377Z,99920.97
2023-01-08T14:56:07.942Z,99929.50
2023-01-08T14:58:41.714Z,99943.06
2023-01-08T15:01:18.051Z,99935.44
2023-01-08T15:03:48.028Z,99923.56
2023-01-08T15:06:26.420Z,99932.88
2023-01-08T15:08:55.190Z,99909.06
2023-01-08T15:11:26.393Z,99905.69
2023-01-08T15:13:57.315Z,99898.84
2023-01-08T15:16:30.604Z,99905.59
2023-01-08T15:19:06.428Z,99910.72
2023-01-08T15:21:35.909Z,99903.06
2023-01-08T15:24:06.486Z,99910.72
2023-01-08T15:26:35.304Z,99892.91
2023-01-08T15:29:08.024Z,99910.78
2023-01-08T15:31:48.839Z,99907.31
2023-01-08T15:34:21.741Z,99903.97
2023-01-08T15:36:50.200Z,99906.59
2023-01-08T15:39:18.626Z,99910.00
2023-01-08T15:42:05.812Z,99899.81
2023-01-08T15:44:35.575Z,99908.34
2023-01-08T15:47:03.914Z,99915.16
2023-01-08T15:49:32.225Z,99901.59
2023-01-08T15:52:00.627Z,99897.38
2023-01-08T15:54:29.248Z,99897.38
2023-01-08T15:56:57.626Z,99891.44
2023-01-08T15:59:25.984Z,99886.28
2023-01-08T16:01:56.122Z,99883.69
2023-01-08T16:04:24.578Z,99874.38
2023-01-08T16:06:52.883Z,99869.28
2023-01-08T16:09:21.226Z,99852.25
2023-01-08T16:11:49.743Z,99859.88
2023-01-08T16:14:18.138Z,99859.88
2023-01-08T16:16:46.562Z,99856.44
2023-01-08T16:19:18.344Z,99852.22
2023-01-08T16:21:48.242Z,99844.59
2023-01-08T16:24:16.788Z,99857.34
2023-01-08T16:26:45.163Z,99853.09
2023-01-08T16:29:13.482Z,99849.63
2023-01-08T16:31:47.632Z,99840.25
2023-01-08T16:34:20.485Z,99842.00
2023-01-08T16:36:49.966Z,99842.00
2023-01-08T16:39:19.397Z,99836.06
2023-01-08T16:41:49.288Z,99824.13
2023-01-08T16:44:22.986Z,99807.97
2023-01-08T16:46:51.961Z,99819.81
2023-01-08T16:49:21.795Z,99843.53
2023-01-08T16:51:50.383Z,99854.63
2023-01-08T16:54:19.009Z,99860.59
2023-01-08T16:56:47.571Z,99852.13
2023-01-08T16:59:23.237Z,99847.94
2023-01-08T17:01:52.496Z,99855.56
2023-01-08T17:04:22.565Z,99843.72
2023-01-08T17:06:51.233Z,99850.53
2023-01-08T17:09:21.261Z,99853.94
2023-01-08T17:11:49.652Z,99848.84
2023-01-08T17:14:18.465Z,99837.75
2023-01-08T17:16:47.724Z,99832.72
2023-01-08T17:19:16.606Z,99835.28
2023-01-08T17:21:48.102Z,99840.38
2023-01-08T17:24:16.424Z,99831.94
2023-01-08T17:26:44.888Z,99831.06
2023-01-08T17:29:13.355Z,99830.25
2023-01-08T17:31:42.004Z,99826.84
2023-01-08T17:34:14.683Z,99821.75
2023-01-08T17:36:43.293Z,99818.38
2023-01-08T17:39:13.811Z,99819.22
2023-01-08T17:41:59.549Z,99816.66
2023-01-08T17:44:31.066Z,99820.09
2023-01-08T17:46:59.469Z,99816.78
2023-01-08T17:49:27.876Z,99806.59
2023-01-08T17:51:57.419Z,99803.25
2023-01-08T17:54:27.575Z,99816.78
2023-01-08T17:56:56.485Z,99801.44
2023-01-08T17:59:26.475Z,99813.34
2023-01-08T18:01:55.434Z,99803.19
2023-01-08T18:04:23.981Z,99788.72
2023-01-08T18:06:53.665Z,99772.63
2023-01-08T18:09:22.203Z,99782.75
2023-01-08T18:11:52.005Z,99775.09
2023-01-08T18:14:21.059Z,99763.22
2023-01-08T18:16:49.879Z,99775.09
2023-01-08T18:19:20.033Z,99770.00
2023-01-08T18:21:49.319Z,99764.91
2023-01-08T18:24:19.051Z,99780.19
2023-01-08T18:26:48.120Z,99775.16
2023-01-08T18:29:17.922Z,99769.19
2023-01-08T18:31:46.564Z,99779.38
2023-01-08T18:34:15.811Z,99770.91
2023-01-08T18:36:45.345Z,99775.16
2023-01-08T18:39:15.674Z,99772.66
2023-01-08T18:42:01.555Z,99781.19
2023-01-08T18:44:31.359Z,99779.50
2023-01-08T18:46:59.728Z,99782.03
2023-01-08T18:49:31.926Z,99759.72
2023-01-08T18:52:00.262Z,99792.22
2023-01-08T18:54:29.821Z,99792.28
2023-01-08T18:56:58.501Z,99782.09
2023-01-08T18:59:28.444Z,99773.63
2023-01-08T19:01:58.737Z,99786.34
2023-01-08T19:04:27.268Z,99779.59
2023-01-08T19:06:55.621Z,99768.56
2023-01-08T19:09:24.088Z,99765.19
2023-01-08T19:11:52.425Z,99761.78
2023-01-08T19:14:20.748Z,99767.78
2023-01-08T19:16:51.473Z,99766.13
2023-01-08T19:19:22.740Z,99755.88
2023-01-08T19:21:52.360Z,99748.25
2023-01-08T19:24:20.693Z,99753.38
2023-01-08T19:26:49.118Z,99755.09
2023-01-08T19:29:17.524Z,99762.78
2023-01-08T19:31:46.722Z,99753.44
2023-01-08T19:34:15.400Z,99763.66
2023-01-08T19:36:45.291Z,99766.22
2023-01-08T19:39:13.690Z,99770.50
2023-01-08T19:41:59.410Z,99761.16
2023-01-08T19:44:28.044Z,99771.34
2023-01-08T19:46:56.382Z,99771.31
2023-01-08T19:49:25.673Z,99785.78
2023-01-08T19:51:55.600Z,99774.75
2023-01-08T19:54:26.952Z,99788.34
2023-01-08T19:56:56.121Z,99792.59
2023-01-08T19:59:26.110Z,99772.22
2023-01-08T20:01:54.635Z,99772.25
2023-01-08T20:04:24.759Z,99773.13
2023-01-08T20:06:57.393Z,99790.13
2023-01-08T20:09:26.320Z,99776.56
2023-01-08T20:11:54.864Z,99771.50
2023-01-08T20:14:23.269Z,99768.94
2023-01-08T20:16:52.175Z,99756.22
2023-01-08T20:19:20.655Z,99752.81
2023-01-08T20:21:49.442Z,99742.63
2023-01-08T20:24:19.357Z,99757.91
2023-01-08T20:26:48.562Z,99731.56
2023-01-08T20:29:18.456Z,99726.47
2023-01-08T20:31:47.123Z,99718.81
2023-01-08T20:34:17.192Z,99710.34
2023-01-08T20:36:46.877Z,99705.25
2023-01-08T20:39:21.495Z,99706.94
2023-01-08T20:41:55.809Z,99695.06
2023-01-08T20:44:34.015Z,99685.72
2023-01-08T20:47:05.487Z,99679.72
2023-01-08T20:49:34.207Z,99690.75
2023-01-08T20:52:03.021Z,99674.59
2023-01-08T20:54:32.938Z,99658.44
2023-01-08T20:57:02.156Z,99647.34
2023-01-08T20:59:32.578Z,99632.06
2023-01-08T21:02:04.171Z,99643.09
2023-01-08T21:04:32.861Z,99639.69
2023-01-08T21:07:01.454Z,99637.13
2023-01-08T21:09:29.847Z,99632.88
2023-01-08T21:11:59.640Z,99626.94
2023-01-08T21:14:28.303Z,99637.13
2023-01-08T21:16:57.894Z,99626.09
2023-01-08T21:19:26.289Z,99617.59
2023-01-08T21:21:54.677Z,99624.38
2023-01-08T21:24:23.055Z,99618.44
2023-01-08T21:26:51.481Z,99611.66
2023-01-08T21:29:23.274Z,99602.34
2023-01-08T21:31:55.403Z,99609.13
2023-01-08T21:34:26.114Z,99604.91
2023-01-08T21:36:54.957Z,99597.28
2023-01-08T21:39:24.910Z,99593.88
2023-01-08T21:42:10.830Z,99591.34
2023-01-08T21:44:58.267Z,99582.84
2023-01-08T21:47:28.983Z,99576.09
2023-01-08T21:49:57.394Z,99581.19
2023-01-08T21:52:44.702Z,99584.59
2023-01-08T21:55:16.852Z,99581.19
2023-01-08T21:57:46.167Z,99576.91
2023-01-08T22:00:18.370Z,99579.50
2023-01-08T22:02:46.923Z,99576.94
2023-01-08T22:05:15.330Z,99565.91
2023-01-08T22:07:43.727Z,99562.53
2023-01-08T22:10:14.149Z,99570.19
2023-01-08T22:12:42.901Z,99565.06
2023-01-08T22:15:13.196Z,99565.94
2023-01-08T22:17:45.276Z,99566.78
2023-01-08T22:20:13.893Z,99560.03
2023-01-08T22:22:45.679Z,99566.84
2023-01-08T22:25:15.061Z,99564.28
2023-01-08T22:27:43.800Z,99556.66
2023-01-08T22:30:13.772Z,99559.19
2023-01-08T22:32:43.973Z,99560.88
2023-01-08T22:35:12.269Z,99553.25
2023-01-08T22:37:41.926Z,99546.47
2023-01-08T22:40:12.899Z,99547.34
2023-01-08T22:42:41.337Z,99557.53
2023-01-08T22:45:10.806Z,99552.47
2023-01-08T22:47:39.147Z,99556.75
2023-01-08T22:50:10.487Z,99555.03
2023-01-08T22:52:38.894Z,99537.22
2023-01-08T22:55:08.656Z,99538.06
2023-01-08T22:57:37.090Z,99523.66
2023-01-08T23:00:10.088Z,99523.63
2023-01-08T23:02:38.924Z,99516.00
2023-01-08T23:05:09.472Z,99512.59
2023-01-08T23:07:37.791Z,99502.41
2023-01-08T23:10:07.448Z,99493.03
2023-01-08T23:12:35.800Z,99486.22
2023-01-08T23:15:05.342Z,99478.56
2023-01-08T23:17:44.606Z,99455.59
2023-01-08T23:20:24.063Z,99464.94
2023-01-08T23:22:52.544Z,99478.53
2023-01-08T23:25:21.191Z,99470.84
2023-01-08T23:27:49.662Z,99457.28
2023-01-08T23:30:19.114Z,99455.53
2023-01-08T23:32:47.437Z,99456.38
2023-01-08T23:35:15.912Z,99455.50
2023-01-08T23:37:45.647Z,99456.38
2023-01-08T23:40:14.935Z,99446.19
2023-01-08T23:42:43.302Z,99449.56
2023-01-08T23:45:12.777Z,99457.22
2023-01-08T23:47:41.153Z,99440.25
2023-01-08T23:50:12.795Z,99438.53
2023-01-08T23:52:41.185Z,99430.88
2023-01-08T23:55:12.371Z,99433.44
2023-01-08T23:57:40.737Z,99417.28
